Olathe, KS

11:45 AM CDT on April 26, 2015 (GMT -0500)
Northgate Estates | | Change Station
CLOSE
Current Station
Personal Weather Station
Location: Olathe, KS
Elevation: 970 ft
Nearby Weather Stations

Elev 970 ft 38.89 °N, 94.82 °W | Updated 10 seconds ago

Overcast
Overcast
51.6 °F
Feels Like 51.6 °F
N
4.9
Wind Variable Wind from NE
Gusts 7.0 mph

Today
High -- | Low -- °F
--% Chance of Precip.
Yesterday
High -- | Low -- °F
Precip. -- in
6:27 AM 8:06 PM
First Quarter, 57% visible
Pressure 29.96 in
Visibility 8.0 miles
Clouds Overcast 1600 ft
Dew Point 45 °F
Humidity 78%
Rainfall 0.00 in
Snow Depth Not available.
UV 2.0 out of 12
Pollen 9.30 out of 12
Air Quality Not available.
Flu Activity Sporadic
METAR KOJC 261553Z 05011KT 8SM OVC016 10/06 A2996 RMK AO2 SLP146 T01000061

More Conditions Fewer Conditions

Pressure 29.96 in
Visibility 8.0 miles
Clouds Overcast 1600 ft
Dew Point 45 °F
Humidity 78%
Rainfall 0.00 in
Snow Depth Not available.
UV 2.0 out of 12
Pollen 9.30 out of 12
Air Quality Not available.
Flu Activity Sporadic
METAR KOJC 261553Z 05011KT 8SM OVC016 10/06 A2996 RMK AO2 SLP146 T01000061

More Conditions Fewer Conditions

The full scope of the disaster following a powerful 7.8-magnitude earthquake in Nepal may not come into view for days, but global charities are already sending emergency aid. Click to see how you can help.

10-Day Weather Forecast

Almanac

Astronomy

Apr. 26, 2015 Rise Set
Actual Time
Civil Twilight
Nautical Twilight
Astronomical Twilight
Moon
Length of Visible Light
Length of Day
Tomorrow will be .
, % of the Moon is Illuminated

Today's Extremes

State Highs State Lows

Community

WunderPhotos

Upload Photos

1,817,054 photos uploaded!

WunderBlogs® & News

Nearby

Air Quality

  Air Quality AQ Index Pollutant
Not available.

Snow Depth

Station Depth Elevation

Earthquake Activity

City Distance Mag. Time & Date
Minimum magnitude displayed is 2.5.

Coastal Water Temperatures

Place Temperature

Stations

Nearby Weather Stations

Station Location Temp. Windchill Dew Point Humidity Wind Precip. Elev Updated Type